sensor_id;sensor_type;location;lat;lon;timestamp;pressure;altitude;pressure_sealevel;temperature;humidity
13765;BME280;6953;48.810;9.204;2023-08-08T00:02:05;98884.75;;;14.78;92.49
13765;BME280;6953;48.810;9.204;2023-08-08T00:04:31;98881.16;;;14.79;93.31
13765;BME280;6953;48.810;9.204;2023-08-08T00:06:56;98648.81;;;13.50;93.41
13765;BME280;6953;48.810;9.204;2023-08-08T00:09:22;98816.78;;;14.56;93.36
13765;BME280;6953;48.810;9.204;2023-08-08T00:11:47;98628.41;;;13.54;93.05
13765;BME280;6953;48.810;9.204;2023-08-08T00:14:13;98675.97;;;13.91;92.53
13765;BME280;6953;48.810;9.204;2023-08-08T00:16:39;98885.19;;;15.36;91.97
13765;BME280;6953;48.810;9.204;2023-08-08T00:19:04;98804.16;;;14.98;91.02
13765;BME280;6953;48.810;9.204;2023-08-08T00:21:30;98888.13;;;15.57;90.79
13765;BME280;6953;48.810;9.204;2023-08-08T00:23:55;98894.78;;;15.62;90.72
13765;BME280;6953;48.810;9.204;2023-08-08T00:26:21;98885.69;;;15.66;91.22
13765;BME280;6953;48.810;9.204;2023-08-08T00:28:46;98861.69;;;15.57;91.17
13765;BME280;6953;48.810;9.204;2023-08-08T00:31:11;98870.91;;;15.63;90.61
13765;BME280;6953;48.810;9.204;2023-08-08T00:33:37;98882.41;;;15.75;90.34
13765;BME280;6953;48.810;9.204;2023-08-08T00:36:02;98889.47;;;15.87;90.85
13765;BME280;6953;48.810;9.204;2023-08-08T00:38:28;98897.22;;;15.90;90.40
13765;BME280;6953;48.810;9.204;2023-08-08T00:40:53;98919.75;;;15.95;90.07
13765;BME280;6953;48.810;9.204;2023-08-08T00:43:19;98883.00;;;16.03;89.36
13765;BME280;6953;48.810;9.204;2023-08-08T00:45:44;98681.88;;;14.96;89.00
13765;BME280;6953;48.810;9.204;2023-08-08T00:48:10;98776.72;;;15.61;88.27
13765;BME280;6953;48.810;9.204;2023-08-08T00:50:36;98877.00;;;16.25;87.65
13765;BME280;6953;48.810;9.204;2023-08-08T00:53:04;98866.00;;;16.18;87.70
13765;BME280;6953;48.810;9.204;2023-08-08T00:55:30;98831.09;;;16.01;87.79
13765;BME280;6953;48.810;9.204;2023-08-08T00:57:55;98683.88;;;15.05;87.16
13765;BME280;6953;48.810;9.204;2023-08-08T01:00:21;98813.78;;;15.97;86.95
13765;BME280;6953;48.810;9.204;2023-08-08T01:02:46;98885.78;;;16.25;86.71
13765;BME280;6953;48.810;9.204;2023-08-08T01:05:11;98628.63;;;14.89;86.50
13765;BME280;6953;48.810;9.204;2023-08-08T01:07:53;98866.09;;;16.29;86.93
13765;BME280;6953;48.810;9.204;2023-08-08T01:10:31;98734.47;;;15.49;87.17
13765;BME280;6953;48.810;9.204;2023-08-08T01:13:00;98630.66;;;14.86;86.98
13765;BME280;6953;48.810;9.204;2023-08-08T01:15:28;98882.41;;;16.23;87.48
13765;BME280;6953;48.810;9.204;2023-08-08T01:17:54;98864.53;;;16.14;87.15
13765;BME280;6953;48.810;9.204;2023-08-08T01:20:20;98855.44;;;16.06;87.49
13765;BME280;6953;48.810;9.204;2023-08-08T01:23:09;98868.03;;;16.15;87.09
13765;BME280;6953;48.810;9.204;2023-08-08T01:25:38;98868.03;;;16.15;88.55
13765;BME280;6953;48.810;9.204;2023-08-08T01:28:04;98863.06;;;16.10;88.60
13765;BME280;6953;48.810;9.204;2023-08-08T01:30:30;98673.19;;;15.06;88.03
13765;BME280;6953;48.810;9.204;2023-08-08T01:32:55;98714.69;;;15.42;87.78
13765;BME280;6953;48.810;9.204;2023-08-08T01:35:21;98627.34;;;14.95;87.66
13765;BME280;6953;48.810;9.204;2023-08-08T01:37:52;98843.22;;;16.28;88.07
13765;BME280;6953;48.810;9.204;2023-08-08T01:40:20;98887.22;;;16.42;88.23
13765;BME280;6953;48.810;9.204;2023-08-08T01:42:48;98810.75;;;16.14;88.86
13765;BME280;6953;48.810;9.204;2023-08-08T01:45:15;98844.25;;;16.38;89.22
13765;BME280;6953;48.810;9.204;2023-08-08T01:47:41;98810.84;;;16.12;88.83
13765;BME280;6953;48.810;9.204;2023-08-08T01:50:07;98856.75;;;16.36;88.83
13765;BME280;6953;48.810;9.204;2023-08-08T01:52:32;98625.53;;;15.08;88.72
13765;BME280;6953;48.810;9.204;2023-08-08T01:54:58;98865.22;;;16.41;89.01
13765;BME280;6953;48.810;9.204;2023-08-08T01:57:23;98850.88;;;16.44;89.13
13765;BME280;6953;48.810;9.204;2023-08-08T01:59:48;98848.97;;;16.46;89.13
13765;BME280;6953;48.810;9.204;2023-08-08T02:02:15;98853.22;;;16.48;89.14
13765;BME280;6953;48.810;9.204;2023-08-08T02:04:42;98845.16;;;16.50;89.29
13765;BME280;6953;48.810;9.204;2023-08-08T02:07:07;98842.50;;;16.50;89.21
13765;BME280;6953;48.810;9.204;2023-08-08T02:09:32;98843.22;;;16.52;88.59
13765;BME280;6953;48.810;9.204;2023-08-08T02:11:58;98842.78;;;16.58;88.41
13765;BME280;6953;48.810;9.204;2023-08-08T02:14:23;98573.50;;;15.08;86.89
13765;BME280;6953;48.810;9.204;2023-08-08T02:16:48;98830.53;;;16.67;86.52
13765;BME280;6953;48.810;9.204;2023-08-08T02:19:14;98834.66;;;16.82;85.86
13765;BME280;6953;48.810;9.204;2023-08-08T02:21:40;98829.78;;;16.89;85.48
13765;BME280;6953;48.810;9.204;2023-08-08T02:24:05;98601.69;;;15.56;84.66
13765;BME280;6953;48.810;9.204;2023-08-08T02:26:31;98839.88;;;16.95;84.30
13765;BME280;6953;48.810;9.204;2023-08-08T02:28:56;98825.91;;;16.93;84.15
13765;BME280;6953;48.810;9.204;2023-08-08T02:31:21;98793.56;;;16.66;84.05
13765;BME280;6953;48.810;9.204;2023-08-08T02:33:50;98601.50;;;15.47;84.55
13765;BME280;6953;48.810;9.204;2023-08-08T02:36:17;98835.81;;;16.67;85.17
13765;BME280;6953;48.810;9.204;2023-08-08T02:42:12;98834.94;;;16.33;86.30
13765;BME280;6953;48.810;9.204;2023-08-08T02:44:37;98864.09;;;16.20;86.69
13765;BME280;6953;48.810;9.204;2023-08-08T02:47:03;98846.22;;;16.11;87.47
13765;BME280;6953;48.810;9.204;2023-08-08T02:49:28;98836.09;;;16.05;87.86
13765;BME280;6953;48.810;9.204;2023-08-08T02:51:54;98831.75;;;16.04;87.92
13765;BME280;6953;48.810;9.204;2023-08-08T02:54:20;98831.09;;;16.01;87.54
13765;BME280;6953;48.810;9.204;2023-08-08T02:56:45;98656.41;;;14.95;88.20
13765;BME280;6953;48.810;9.204;2023-08-08T02:59:10;98837.09;;;15.92;88.52
13765;BME280;6953;48.810;9.204;2023-08-08T03:01:35;98835.53;;;15.77;88.51
13765;BME280;6953;48.810;9.204;2023-08-08T03:04:04;98832.00;;;15.89;88.57
13765;BME280;6953;48.810;9.204;2023-08-08T03:06:29;98838.47;;;15.85;88.93
13765;BME280;6953;48.810;9.204;2023-08-08T03:08:55;98852.78;;;15.70;88.95
13765;BME280;6953;48.810;9.204;2023-08-08T03:11:20;98836.31;;;15.66;89.55
13765;BME280;6953;48.810;9.204;2023-08-08T03:13:45;98837.88;;;15.57;90.40
13765;BME280;6953;48.810;9.204;2023-08-08T03:16:10;98852.47;;;15.50;91.38
13765;BME280;6953;48.810;9.204;2023-08-08T03:18:36;98830.38;;;15.51;91.04
13765;BME280;6953;48.810;9.204;2023-08-08T03:21:01;98823.63;;;15.47;90.89
13765;BME280;6953;48.810;9.204;2023-08-08T03:23:27;98828.81;;;15.48;90.96
13765;BME280;6953;48.810;9.204;2023-08-08T03:25:53;98826.69;;;15.41;91.35
13765;BME280;6953;48.810;9.204;2023-08-08T03:28:18;98784.72;;;15.11;92.01
13765;BME280;6953;48.810;9.204;2023-08-08T03:30:43;98833.34;;;15.34;92.86
13765;BME280;6953;48.810;9.204;2023-08-08T03:33:09;98600.97;;;13.95;92.59
13765;BME280;6953;48.810;9.204;2023-08-08T03:35:34;98837.41;;;15.27;93.07
13765;BME280;6953;48.810;9.204;2023-08-08T03:37:59;98830.28;;;15.27;94.26
13765;BME280;6953;48.810;9.204;2023-08-08T03:40:24;98732.28;;;14.68;93.93
13765;BME280;6953;48.810;9.204;2023-08-08T03:42:50;98852.72;;;15.34;94.81
13765;BME280;6953;48.810;9.204;2023-08-08T03:45:15;98833.34;;;15.46;93.77
13765;BME280;6953;48.810;9.204;2023-08-08T03:47:40;98838.84;;;15.56;93.80
13765;BME280;6953;48.810;9.204;2023-08-08T03:50:07;98847.84;;;15.65;93.71
13765;BME280;6953;48.810;9.204;2023-08-08T03:52:32;98832.78;;;15.78;93.14
13765;BME280;6953;48.810;9.204;2023-08-08T03:55:01;98823.53;;;15.84;92.77
13765;BME280;6953;48.810;9.204;2023-08-08T03:57:26;98614.09;;;14.71;92.56
13765;BME280;6953;48.810;9.204;2023-08-08T03:59:51;98839.13;;;16.12;91.86
13765;BME280;6953;48.810;9.204;2023-08-08T04:02:16;98825.78;;;16.13;90.85
13765;BME280;6953;48.810;9.204;2023-08-08T04:04:42;98865.44;;;16.26;91.06
13765;BME280;6953;48.810;9.204;2023-08-08T04:07:07;98770.78;;;15.93;90.99
13765;BME280;6953;48.810;9.204;2023-08-08T04:09:32;98855.91;;;16.36;90.94
13765;BME280;6953;48.810;9.204;2023-08-08T04:11:57;98861.72;;;16.41;90.00
13765;BME280;6953;48.810;9.204;2023-08-08T04:14:23;98830.91;;;16.40;90.12
13765;BME280;6953;48.810;9.204;2023-08-08T04:16:48;98722.50;;;15.79;90.33
13765;BME280;6953;48.810;9.204;2023-08-08T04:19:13;98838.28;;;16.47;90.71
13765;BME280;6953;48.810;9.204;2023-08-08T04:21:39;98544.25;;;14.75;90.26
13765;BME280;6953;48.810;9.204;2023-08-08T04:24:04;98817.19;;;16.46;89.87
13765;BME280;6953;48.810;9.204;2023-08-08T04:26:31;98820.34;;;16.51;90.12
13765;BME280;6953;48.810;9.204;2023-08-08T04:28:56;98835.78;;;16.57;89.67
13765;BME280;6953;48.810;9.204;2023-08-08T04:31:22;98826.06;;;16.34;88.78
13765;BME280;6953;48.810;9.204;2023-08-08T04:33:50;98849.63;;;16.49;88.65
13765;BME280;6953;48.810;9.204;2023-08-08T04:36:15;98856.03;;;16.58;88.67
13765;BME280;6953;48.810;9.204;2023-08-08T04:38:40;98595.34;;;15.23;89.09
13765;BME280;6953;48.810;9.204;2023-08-08T04:41:05;98830.34;;;16.47;89.17
13765;BME280;6953;48.810;9.204;2023-08-08T04:43:31;98828.00;;;16.66;89.27
13765;BME280;6953;48.810;9.204;2023-08-08T04:45:56;98839.34;;;16.79;88.62
13765;BME280;6953;48.810;9.204;2023-08-08T04:48:21;98843.75;;;16.91;88.53
13765;BME280;6953;48.810;9.204;2023-08-08T04:50:47;98854.16;;;17.05;87.91
13765;BME280;6953;48.810;9.204;2023-08-08T04:53:12;98845.47;;;17.14;85.12
13765;BME280;6953;48.810;9.204;2023-08-08T04:55:37;98858.53;;;17.28;84.63
13765;BME280;6953;48.810;9.204;2023-08-08T04:58:03;98845.78;;;17.33;83.54
13765;BME280;6953;48.810;9.204;2023-08-08T05:00:28;98849.06;;;17.36;83.48
13765;BME280;6953;48.810;9.204;2023-08-08T05:02:54;98775.66;;;16.91;83.05
13765;BME280;6953;48.810;9.204;2023-08-08T05:05:19;98625.31;;;16.04;83.29
13765;BME280;6953;48.810;9.204;2023-08-08T05:07:44;98849.72;;;17.27;83.31
13765;BME280;6953;48.810;9.204;2023-08-08T05:10:09;98769.41;;;16.81;83.36
13765;BME280;6953;48.810;9.204;2023-08-08T05:12:35;98848.03;;;17.26;83.32
13765;BME280;6953;48.810;9.204;2023-08-08T05:15:00;98859.78;;;17.35;83.31
13765;BME280;6953;48.810;9.204;2023-08-08T05:17:25;98744.03;;;17.12;82.63
13765;BME280;6953;48.810;9.204;2023-08-08T05:19:51;98847.22;;;18.24;80.01
13765;BME280;6953;48.810;9.204;2023-08-08T05:22:16;98843.28;;;18.82;77.87
13765;BME280;6953;48.810;9.204;2023-08-08T05:24:41;98617.09;;;18.23;74.64
13765;BME280;6953;48.810;9.204;2023-08-08T05:27:07;98804.69;;;19.88;71.93
13765;BME280;6953;48.810;9.204;2023-08-08T05:29:32;98863.78;;;20.60;69.69
13765;BME280;6953;48.810;9.204;2023-08-08T05:31:57;98804.97;;;21.09;67.67
13765;BME280;6953;48.810;9.204;2023-08-08T05:34:25;98830.66;;;21.84;64.80
13765;BME280;6953;48.810;9.204;2023-08-08T05:36:51;98830.91;;;22.17;62.09
13765;BME280;6953;48.810;9.204;2023-08-08T05:39:16;98831.31;;;22.13;61.61
13765;BME280;6953;48.810;9.204;2023-08-08T05:41:41;98637.72;;;21.00;61.40
13765;BME280;6953;48.810;9.204;2023-08-08T05:44:07;98751.66;;;21.72;60.29
13765;BME280;6953;48.810;9.204;2023-08-08T05:46:32;98847.19;;;22.51;59.33
13765;BME280;6953;48.810;9.204;2023-08-08T05:48:57;98846.44;;;22.93;57.44
13765;BME280;6953;48.810;9.204;2023-08-08T05:51:22;98847.44;;;23.52;55.17
13765;BME280;6953;48.810;9.204;2023-08-08T05:53:48;98697.41;;;23.19;52.24
13765;BME280;6953;48.810;9.204;2023-08-08T05:56:13;98805.56;;;24.18;50.96
13765;BME280;6953;48.810;9.204;2023-08-08T05:58:38;98874.69;;;24.65;49.48
13765;BME280;6953;48.810;9.204;2023-08-08T06:01:04;98843.84;;;25.01;49.20
13765;BME280;6953;48.810;9.204;2023-08-08T06:03:34;98852.59;;;25.51;46.29
13765;BME280;6953;48.810;9.204;2023-08-08T06:06:00;98851.03;;;25.96;45.37
13765;BME280;6953;48.810;9.204;2023-08-08T06:08:26;98863.72;;;26.18;43.00
13765;BME280;6953;48.810;9.204;2023-08-08T06:10:51;98728.38;;;25.71;43.14
13765;BME280;6953;48.810;9.204;2023-08-08T06:13:16;98802.78;;;26.63;41.24
13765;BME280;6953;48.810;9.204;2023-08-08T06:15:42;98842.47;;;27.14;40.67
13765;BME280;6953;48.810;9.204;2023-08-08T06:18:07;98843.59;;;27.42;39.02
13765;BME280;6953;48.810;9.204;2023-08-08T06:20:32;98850.59;;;27.51;39.71
13765;BME280;6953;48.810;9.204;2023-08-08T06:22:57;98819.28;;;27.50;38.33
13765;BME280;6953;48.810;9.204;2023-08-08T06:25:23;98654.25;;;26.74;37.39
13765;BME280;6953;48.810;9.204;2023-08-08T06:27:48;98838.31;;;28.14;36.99
13765;BME280;6953;48.810;9.204;2023-08-08T06:30:14;98854.50;;;28.43;36.06
13765;BME280;6953;48.810;9.204;2023-08-08T06:32:40;98832.91;;;28.64;35.19
13765;BME280;6953;48.810;9.204;2023-08-08T06:35:05;98828.34;;;28.29;35.26
13765;BME280;6953;48.810;9.204;2023-08-08T06:37:31;98837.28;;;28.01;36.98
13765;BME280;6953;48.810;9.204;2023-08-08T06:39:56;98834.88;;;28.06;36.45
13765;BME280;6953;48.810;9.204;2023-08-08T06:42:21;98836.44;;;28.29;35.64
13765;BME280;6953;48.810;9.204;2023-08-08T06:44:47;98841.91;;;28.50;35.72
13765;BME280;6953;48.810;9.204;2023-08-08T06:47:12;98841.72;;;28.08;36.70
13765;BME280;6953;48.810;9.204;2023-08-08T06:49:38;98655.88;;;26.38;38.51
13765;BME280;6953;48.810;9.204;2023-08-08T06:52:04;98861.38;;;26.84;40.21
13765;BME280;6953;48.810;9.204;2023-08-08T06:54:30;98834.31;;;26.77;40.89
13765;BME280;6953;48.810;9.204;2023-08-08T06:56:55;98861.25;;;27.67;38.14
13765;BME280;6953;48.810;9.204;2023-08-08T06:59:22;98686.31;;;27.78;36.65
13765;BME280;6953;48.810;9.204;2023-08-08T07:01:48;98739.97;;;28.23;35.18
13765;BME280;6953;48.810;9.204;2023-08-08T07:04:13;98825.09;;;28.69;34.65
13765;BME280;6953;48.810;9.204;2023-08-08T07:06:39;98846.41;;;28.64;35.08
13765;BME280;6953;48.810;9.204;2023-08-08T07:09:04;98832.81;;;28.86;35.02
13765;BME280;6953;48.810;9.204;2023-08-08T07:11:29;98853.53;;;29.21;33.78
13765;BME280;6953;48.810;9.204;2023-08-08T07:13:55;98848.38;;;29.26;33.63
13765;BME280;6953;48.810;9.204;2023-08-08T07:16:20;98831.06;;;29.42;33.27
13765;BME280;6953;48.810;9.204;2023-08-08T07:18:45;98838.50;;;29.61;33.43
13765;BME280;6953;48.810;9.204;2023-08-08T07:21:10;98841.59;;;29.58;33.39
13765;BME280;6953;48.810;9.204;2023-08-08T07:23:36;98833.78;;;29.96;32.63
13765;BME280;6953;48.810;9.204;2023-08-08T07:26:01;98702.06;;;29.42;32.34
13765;BME280;6953;48.810;9.204;2023-08-08T07:28:26;98819.97;;;30.72;31.58
13765;BME280;6953;48.810;9.204;2023-08-08T07:30:51;98860.00;;;31.75;29.47
13765;BME280;6953;48.810;9.204;2023-08-08T07:33:17;98832.84;;;31.88;29.00
13765;BME280;6953;48.810;9.204;2023-08-08T07:35:42;98663.84;;;30.71;29.36
13765;BME280;6953;48.810;9.204;2023-08-08T07:38:07;98839.34;;;32.63;28.04
13765;BME280;6953;48.810;9.204;2023-08-08T07:40:33;98840.97;;;32.71;26.95
13765;BME280;6953;48.810;9.204;2023-08-08T07:42:58;98825.03;;;32.24;28.21
13765;BME280;6953;48.810;9.204;2023-08-08T07:45:24;98615.91;;;31.74;27.94
13765;BME280;6953;48.810;9.204;2023-08-08T07:47:49;98843.56;;;34.25;25.91
13765;BME280;6953;48.810;9.204;2023-08-08T07:50:14;98831.22;;;34.40;25.35
13765;BME280;6953;48.810;9.204;2023-08-08T07:52:40;98850.31;;;35.06;23.99
13765;BME280;6953;48.810;9.204;2023-08-08T07:55:06;98820.16;;;35.01;23.92
13765;BME280;6953;48.810;9.204;2023-08-08T07:57:32;98835.06;;;34.69;23.29
13765;BME280;6953;48.810;9.204;2023-08-08T07:59:59;98842.53;;;33.28;24.42
13765;BME280;6953;48.810;9.204;2023-08-08T08:02:30;98640.91;;;30.93;26.13
13765;BME280;6953;48.810;9.204;2023-08-08T08:04:55;98819.63;;;30.94;27.70
13765;BME280;6953;48.810;9.204;2023-08-08T08:07:21;98809.16;;;29.91;28.58
13765;BME280;6953;48.810;9.204;2023-08-08T08:09:46;98739.75;;;28.95;29.92
13765;BME280;6953;48.810;9.204;2023-08-08T08:12:11;98818.28;;;28.73;30.94
13765;BME280;6953;48.810;9.204;2023-08-08T08:14:37;98745.13;;;28.33;30.94
13765;BME280;6953;48.810;9.204;2023-08-08T08:17:02;98819.94;;;28.74;30.81
13765;BME280;6953;48.810;9.204;2023-08-08T08:19:28;98809.31;;;28.52;31.47
13765;BME280;6953;48.810;9.204;2023-08-08T08:21:53;98614.75;;;27.18;32.19
13765;BME280;6953;48.810;9.204;2023-08-08T08:24:19;98593.81;;;26.77;32.80
13765;BME280;6953;48.810;9.204;2023-08-08T08:26:45;98827.59;;;27.77;33.34
13765;BME280;6953;48.810;9.204;2023-08-08T08:29:10;98648.13;;;26.43;33.92
13765;BME280;6953;48.810;9.204;2023-08-08T08:31:35;98747.34;;;26.91;34.79
13765;BME280;6953;48.810;9.204;2023-08-08T08:34:02;98836.56;;;27.55;34.38
13765;BME280;6953;48.810;9.204;2023-08-08T08:36:28;98761.28;;;27.83;33.02
13765;BME280;6953;48.810;9.204;2023-08-08T08:38:53;98826.44;;;28.94;31.93
13765;BME280;6953;48.810;9.204;2023-08-08T08:41:20;98737.22;;;28.52;32.25
13765;BME280;6953;48.810;9.204;2023-08-08T08:43:50;98652.88;;;28.77;31.27
13765;BME280;6953;48.810;9.204;2023-08-08T08:46:18;98770.50;;;29.97;30.14
13765;BME280;6953;48.810;9.204;2023-08-08T08:48:45;98789.84;;;31.20;28.17
13765;BME280;6953;48.810;9.204;2023-08-08T08:51:11;98811.50;;;32.04;27.65
13765;BME280;6953;48.810;9.204;2023-08-08T08:53:36;98812.41;;;31.66;27.98
13765;BME280;6953;48.810;9.204;2023-08-08T08:56:04;98803.78;;;30.38;29.02
13765;BME280;6953;48.810;9.204;2023-08-08T08:58:30;98809.34;;;30.64;28.48
13765;BME280;6953;48.810;9.204;2023-08-08T09:00:56;98802.09;;;32.00;26.73
13765;BME280;6953;48.810;9.204;2023-08-08T09:03:23;98760.59;;;31.81;27.03
13765;BME280;6953;48.810;9.204;2023-08-08T09:05:49;98804.28;;;32.42;25.95
13765;BME280;6953;48.810;9.204;2023-08-08T09:08:15;98610.56;;;32.66;24.75
13765;BME280;6953;48.810;9.204;2023-08-08T09:10:40;98819.72;;;34.38;23.26
13765;BME280;6953;48.810;9.204;2023-08-08T09:13:05;98748.41;;;34.71;22.43
13765;BME280;6953;48.810;9.204;2023-08-08T09:15:32;98807.47;;;35.35;22.56
13765;BME280;6953;48.810;9.204;2023-08-08T09:17:58;98644.72;;;34.01;23.36
13765;BME280;6953;48.810;9.204;2023-08-08T09:20:25;98798.50;;;35.69;21.86
13765;BME280;6953;48.810;9.204;2023-08-08T09:22:53;98643.06;;;35.33;21.36
13765;BME280;6953;48.810;9.204;2023-08-08T09:25:19;98803.13;;;35.92;22.25
13765;BME280;6953;48.810;9.204;2023-08-08T09:27:44;98693.34;;;34.33;22.30
13765;BME280;6953;48.810;9.204;2023-08-08T09:30:10;98797.97;;;34.50;22.84
13765;BME280;6953;48.810;9.204;2023-08-08T09:32:36;98787.34;;;33.70;23.85
13765;BME280;6953;48.810;9.204;2023-08-08T09:35:02;98648.97;;;31.45;25.77
13765;BME280;6953;48.810;9.204;2023-08-08T09:37:28;98724.44;;;31.80;26.02
13765;BME280;6953;48.810;9.204;2023-08-08T09:40:01;98633.69;;;31.57;24.17
13765;BME280;6953;48.810;9.204;2023-08-08T09:42:29;98768.44;;;32.65;23.53
13765;BME280;6953;48.810;9.204;2023-08-08T09:44:56;98728.66;;;33.92;22.16
13765;BME280;6953;48.810;9.204;2023-08-08T09:47:22;98792.09;;;35.12;21.54
13765;BME280;6953;48.810;9.204;2023-08-08T09:49:48;98806.56;;;36.10;20.88
13765;BME280;6953;48.810;9.204;2023-08-08T09:52:15;98764.97;;;35.51;20.95
13765;BME280;6953;48.810;9.204;2023-08-08T09:54:41;98805.75;;;35.12;21.13
13765;BME280;6953;48.810;9.204;2023-08-08T09:57:07;98777.91;;;35.44;20.91
13765;BME280;6953;48.810;9.204;2023-08-08T09:59:32;98635.69;;;35.00;19.85
13765;BME280;6953;48.810;9.204;2023-08-08T10:01:59;98666.25;;;33.73;21.20
13765;BME280;6953;48.810;9.204;2023-08-08T10:04:24;98791.69;;;33.29;23.07
13765;BME280;6953;48.810;9.204;2023-08-08T10:06:51;98790.91;;;32.47;22.95
13765;BME280;6953;48.810;9.204;2023-08-08T10:09:17;98707.84;;;33.13;22.44
13765;BME280;6953;48.810;9.204;2023-08-08T10:11:43;98766.69;;;34.70;20.27
13765;BME280;6953;48.810;9.204;2023-08-08T10:14:09;98786.50;;;34.59;20.89
13765;BME280;6953;48.810;9.204;2023-08-08T10:16:37;98619.97;;;34.02;20.25
13765;BME280;6953;48.810;9.204;2023-08-08T10:19:03;98788.84;;;37.03;19.51
13765;BME280;6953;48.810;9.204;2023-08-08T10:21:34;98792.84;;;37.28;17.15
13765;BME280;6953;48.810;9.204;2023-08-08T10:24:04;98805.28;;;37.03;17.81
13765;BME280;6953;48.810;9.204;2023-08-08T10:26:30;98624.88;;;35.27;18.43
13765;BME280;6953;48.810;9.204;2023-08-08T10:28:57;98799.69;;;35.85;18.87
13765;BME280;6953;48.810;9.204;2023-08-08T10:31:23;98794.34;;;35.90;19.10
13765;BME280;6953;48.810;9.204;2023-08-08T10:33:48;98740.50;;;35.10;18.50
13765;BME280;6953;48.810;9.204;2023-08-08T10:36:14;98800.47;;;35.39;18.40
13765;BME280;6953;48.810;9.204;2023-08-08T10:38:44;98649.69;;;33.74;19.33
13765;BME280;6953;48.810;9.204;2023-08-08T10:41:13;98613.34;;;31.85;21.04
13765;BME280;6953;48.810;9.204;2023-08-08T10:43:48;98752.69;;;31.53;23.33
13765;BME280;6953;48.810;9.204;2023-08-08T10:46:23;98737.69;;;31.12;23.72
13765;BME280;6953;48.810;9.204;2023-08-08T10:48:51;98758.97;;;33.04;22.17
13765;BME280;6953;48.810;9.204;2023-08-08T10:51:16;98763.09;;;34.22;20.20
13765;BME280;6953;48.810;9.204;2023-08-08T10:53:43;98748.56;;;34.58;19.68
13765;BME280;6953;48.810;9.204;2023-08-08T10:56:12;98758.63;;;34.28;20.01
13765;BME280;6953;48.810;9.204;2023-08-08T10:58:40;98622.41;;;35.15;19.31
13765;BME280;6953;48.810;9.204;2023-08-08T11:01:05;98778.00;;;37.08;17.91
13765;BME280;6953;48.810;9.204;2023-08-08T11:03:35;98606.47;;;35.00;18.10
13765;BME280;6953;48.810;9.204;2023-08-08T11:06:02;98780.88;;;34.90;19.22
13765;BME280;6953;48.810;9.204;2023-08-08T11:08:29;98777.50;;;33.20;20.51
13765;BME280;6953;48.810;9.204;2023-08-08T11:10:56;98739.03;;;35.08;19.36
13765;BME280;6953;48.810;9.204;2023-08-08T11:13:21;98733.81;;;36.60;17.42
13765;BME280;6953;48.810;9.204;2023-08-08T11:15:46;98792.00;;;36.55;17.03
13765;BME280;6953;48.810;9.204;2023-08-08T11:18:13;98786.00;;;36.98;16.68
13765;BME280;6953;48.810;9.204;2023-08-08T11:20:38;98780.34;;;37.32;16.75
13765;BME280;6953;48.810;9.204;2023-08-08T11:23:05;98634.97;;;38.67;15.17
13765;BME280;6953;48.810;9.204;2023-08-08T11:25:36;98790.78;;;39.66;14.75
13765;BME280;6953;48.810;9.204;2023-08-08T11:28:02;98777.94;;;38.87;15.06
13765;BME280;6953;48.810;9.204;2023-08-08T11:30:34;98787.06;;;38.50;15.68
13765;BME280;6953;48.810;9.204;2023-08-08T11:33:00;98772.16;;;37.49;16.24
13765;BME280;6953;48.810;9.204;2023-08-08T11:35:26;98781.09;;;38.31;15.55
13765;BME280;6953;48.810;9.204;2023-08-08T11:37:57;98775.84;;;39.25;15.30
13765;BME280;6953;48.810;9.204;2023-08-08T11:40:23;98805.97;;;39.73;13.64
13765;BME280;6953;48.810;9.204;2023-08-08T11:42:51;98785.19;;;39.24;14.10
13765;BME280;6953;48.810;9.204;2023-08-08T11:45:17;98772.97;;;38.63;15.03
13765;BME280;6953;48.810;9.204;2023-08-08T11:47:43;98788.38;;;39.74;13.67
13765;BME280;6953;48.810;9.204;2023-08-08T11:50:10;98672.75;;;39.13;14.25
13765;BME280;6953;48.810;9.204;2023-08-08T11:52:40;98668.28;;;39.38;14.14
13765;BME280;6953;48.810;9.204;2023-08-08T11:55:09;98776.69;;;39.93;13.97
13765;BME280;6953;48.810;9.204;2023-08-08T11:57:36;98755.50;;;37.88;15.72
13765;BME280;6953;48.810;9.204;2023-08-08T12:00:10;98751.09;;;35.00;17.93
13765;BME280;6953;48.810;9.204;2023-08-08T12:02:39;98742.81;;;33.09;20.31
13765;BME280;6953;48.810;9.204;2023-08-08T12:05:06;98573.53;;;33.07;19.76
13765;BME280;6953;48.810;9.204;2023-08-08T12:07:33;98749.06;;;35.36;18.77
13765;BME280;6953;48.810;9.204;2023-08-08T12:09:59;98730.22;;;34.94;17.40
13765;BME280;6953;48.810;9.204;2023-08-08T12:12:27;98736.22;;;35.14;18.08
13765;BME280;6953;48.810;9.204;2023-08-08T12:14:54;98749.81;;;35.03;17.89
13765;BME280;6953;48.810;9.204;2023-08-08T12:17:21;98701.53;;;34.33;17.71
13765;BME280;6953;48.810;9.204;2023-08-08T12:19:47;98536.44;;;32.28;18.73
13765;BME280;6953;48.810;9.204;2023-08-08T12:22:14;98731.38;;;33.92;19.08
13765;BME280;6953;48.810;9.204;2023-08-08T12:24:39;98727.88;;;36.01;17.60
13765;BME280;6953;48.810;9.204;2023-08-08T12:27:05;98750.44;;;36.98;15.91
13765;BME280;6953;48.810;9.204;2023-08-08T12:29:30;98570.28;;;35.90;15.93
13765;BME280;6953;48.810;9.204;2023-08-08T12:31:56;98740.41;;;36.75;15.76
13765;BME280;6953;48.810;9.204;2023-08-08T12:34:21;98739.50;;;36.31;16.76
13765;BME280;6953;48.810;9.204;2023-08-08T12:36:47;98720.47;;;34.98;17.71
13765;BME280;6953;48.810;9.204;2023-08-08T12:39:13;98706.53;;;33.64;19.19
13765;BME280;6953;48.810;9.204;2023-08-08T12:41:39;98716.31;;;34.25;19.18
13765;BME280;6953;48.810;9.204;2023-08-08T12:44:04;98711.59;;;35.66;18.50
13765;BME280;6953;48.810;9.204;2023-08-08T12:46:30;98697.72;;;36.74;17.37
13765;BME280;6953;48.810;9.204;2023-08-08T12:48:55;98717.94;;;36.06;17.94
13765;BME280;6953;48.810;9.204;2023-08-08T12:51:20;98542.47;;;35.14;18.40
13765;BME280;6953;48.810;9.204;2023-08-08T12:53:46;98710.84;;;37.54;17.01
13765;BME280;6953;48.810;9.204;2023-08-08T12:56:11;98726.22;;;38.79;15.23
13765;BME280;6953;48.810;9.204;2023-08-08T12:58:36;98709.78;;;40.29;14.94
13765;BME280;6953;48.810;9.204;2023-08-08T13:01:02;98678.91;;;39.61;14.55
13765;BME280;6953;48.810;9.204;2023-08-08T13:03:27;98710.03;;;39.09;15.38
13765;BME280;6953;48.810;9.204;2023-08-08T13:05:52;98594.56;;;38.31;15.28
13765;BME280;6953;48.810;9.204;2023-08-08T13:08:18;98713.53;;;37.33;16.50